Weather at Loncopan Airport

Public forecast

Using degrees Celsius for public forecast. Weather courtesy of forecast.io.

Closest aviation weather report (METAR) to Loncopan Airport

Closest report is Pichoy Airport, 35.5 nm (65.8 km) NW. Retrieved 2020/09/21 02:00 UTC (41 minutes ago):

SCVD 210200Z AUTO 33002KT 9999 NCD 07/07 Q1018

Closest aviation forecast (TAF) to Loncopan Airport

Forecast is more than 12 hours old.

Closest forecast is Pichoy Airport, 35.5 nm (65.8 km) NW. Retrieved 2020/09/20 12:00 UTC (15 hours ago):

TAF SCVD 201030Z 2012/2024 16005KT CAVOK TN00/2012Z TX19/2019Z